»·PEaware :: N1128 KLAS-KSLC

N1128 :: KLAS-KSLC

FLIGHT INFORMATION

Flight Status: Arrived
Operator: Privately registered:
United States
More flights under this callsign
Pilot: Siddique N. (20419)
Aircraft: Unknown
(BT7)
More flights by this aircraft type
Origin: KLAS McCarran Intl
United States
Destination: KSLC Salt Lake City Intl
United States
More flights between these airports :: More routes between these airports
Route: +STAAV8 MLF DELTA5
File this flight plan on PilotEdge
Remarks:
Altitude:
(Current/Filed)
25,000ft
Speed:
(Current/Filed)
300kts
Departed: 05-Oct-20 09:53 AM
Arrived: 05-Oct-20 11:02 AM
Distance/Time
Traveled:
319nm/1:09
Distance/Time
To Go:
Arrived

Flight Plot

Page will automatically refresh every two minutes.

Flight plan parsing failed; only flown route is shown


Map Options




Map Legend


Flown Route
Filed Route
Departure Airport
Arrival Airport
Navaid (VOR, NDB)
Fix

Horizontal Profiles

Position Reports

Time Latitude Longitude Heading Altitude Ground
Speed
05-Oct-20 09:07 36.082374 -115.153129 24 2111ft 0kts
05-Oct-20 09:08 36.082374 -115.153129 24 2111ft 0kts
05-Oct-20 09:09 36.082374 -115.153129 24 2111ft 0kts
05-Oct-20 09:10 36.082374 -115.153129 24 2111ft 0kts
05-Oct-20 09:11 36.082374 -115.153129 24 2111ft 0kts
05-Oct-20 09:12 36.082374 -115.153129 24 2111ft 0kts
05-Oct-20 09:13 36.082374 -115.153129 24 2111ft 0kts
05-Oct-20 09:14 36.082374 -115.153129 24 2111ft 0kts
05-Oct-20 09:15 36.082374 -115.153129 24 2111ft 0kts
05-Oct-20 09:16 36.082374 -115.153129 24 2111ft 0kts
05-Oct-20 09:17 36.082374 -115.153129 24 2111ft 0kts
05-Oct-20 09:18 36.082374 -115.153129 24 2111ft 0kts
05-Oct-20 09:19 36.082374 -115.153129 24 2111ft 0kts
05-Oct-20 09:20 36.082374 -115.153129 24 2111ft 0kts
05-Oct-20 09:21 36.082374 -115.153129 24 2111ft 0kts
05-Oct-20 09:22 36.082374 -115.153129 24 2111ft 0kts
05-Oct-20 09:23 36.082374 -115.153129 24 2111ft 0kts
05-Oct-20 09:24 36.082374 -115.153129 24 2111ft 0kts
05-Oct-20 09:25 36.082374 -115.153129 24 2111ft 0kts
05-Oct-20 09:26 36.082374 -115.153129 24 2111ft 0kts
05-Oct-20 09:27 36.082374 -115.153129 24 2111ft 0kts
05-Oct-20 09:28 36.082374 -115.153129 24 2111ft 0kts
05-Oct-20 09:29 36.082374 -115.153129 24 2111ft 0kts
05-Oct-20 09:30 36.082374 -115.153129 24 2111ft 0kts
05-Oct-20 09:31 36.082374 -115.153129 24 2111ft 0kts
05-Oct-20 09:32 36.082374 -115.153129 24 2111ft 0kts
05-Oct-20 09:33 36.082374 -115.153129 24 2111ft 0kts
05-Oct-20 09:34 36.082374 -115.153129 24 2111ft 0kts
05-Oct-20 09:35 36.082374 -115.153129 24 2111ft 0kts
05-Oct-20 09:36 36.082374 -115.153129 24 2111ft 0kts
05-Oct-20 09:37 36.082374 -115.153129 24 2111ft 0kts
05-Oct-20 09:38 36.082374 -115.153129 24 2111ft 0kts
05-Oct-20 09:39 36.082374 -115.153129 24 2111ft 0kts
05-Oct-20 09:40 36.082374 -115.153129 24 2111ft 0kts
05-Oct-20 09:41 36.082374 -115.153129 24 2111ft 0kts
05-Oct-20 09:42 36.082374 -115.153129 24 2111ft 0kts
05-Oct-20 09:43 36.082374 -115.153129 24 2111ft 0kts
05-Oct-20 09:44 36.082023 -115.153070 216 2112ft 0kts
05-Oct-20 09:45 36.078993 -115.153372 137 2120ft 15kts
05-Oct-20 09:46 36.077878 -115.148481 96 2103ft 17kts
05-Oct-20 09:47 36.078199 -115.142954 89 2084ft 17kts
05-Oct-20 09:48 36.078276 -115.134252 91 2059ft 28kts
05-Oct-20 09:49 36.078217 -115.126461 91 2039ft 6kts
05-Oct-20 09:50 36.077635 -115.122333 174 2034ft 0kts
05-Oct-20 09:51 36.076644 -115.122174 168 2036ft 8kts
05-Oct-20 09:52 36.076435 -115.142550 269 2087ft 177kts
05-Oct-20 09:53 36.077521 -115.215522 270 4352ft 216kts
05-Oct-20 09:54 36.087034 -115.280576 327 4814ft 201kts
05-Oct-20 09:55 36.139278 -115.293814 8 5325ft 193kts
05-Oct-20 09:56 36.179602 -115.239501 72 6787ft 219kts
05-Oct-20 09:57 36.197679 -115.172185 87 8463ft 228kts
05-Oct-20 09:58 36.199396 -115.075001 92 10937ft 342kts
05-Oct-20 09:59 36.198697 -114.940931 90 14091ft 402kts
05-Oct-20 10:00 36.198940 -114.809147 90 17543ft 375kts
05-Oct-20 10:01 36.260157 -114.705519 33 18853ft 440kts
05-Oct-20 10:02 36.364752 -114.613792 30 20697ft 460kts
05-Oct-20 10:03 36.466954 -114.522063 34 23697ft 451kts
05-Oct-20 10:04 36.572636 -114.428902 30 24846ft 500kts
05-Oct-20 10:05 36.692045 -114.333460 29 24911ft 507kts
05-Oct-20 10:06 36.811966 -114.241820 31 24915ft 509kts
05-Oct-20 10:07 36.931457 -114.144717 31 24914ft 515kts
05-Oct-20 10:08 37.053030 -114.048720 30 24915ft 520kts
05-Oct-20 10:09 37.174988 -113.953184 30 24910ft 512kts
05-Oct-20 10:10 37.292178 -113.861084 29 24909ft 483kts
05-Oct-20 10:11 37.404377 -113.772585 29 24912ft 471kts
05-Oct-20 10:12 37.509668 -113.689100 29 25126ft 433kts
05-Oct-20 10:13 37.610626 -113.609663 28 25132ft 428kts
05-Oct-20 10:14 37.712794 -113.531289 28 25133ft 431kts
05-Oct-20 10:15 37.814148 -113.453500 28 25130ft 420kts
05-Oct-20 10:16 37.911210 -113.373621 30 25131ft 411kts
05-Oct-20 10:17 38.006033 -113.295090 30 25129ft 410kts
05-Oct-20 10:18 38.102857 -113.217765 30 25048ft 411kts
05-Oct-20 10:19 38.198982 -113.140957 30 25044ft 403kts
05-Oct-20 10:20 38.291996 -113.066412 29 25044ft 386kts
05-Oct-20 10:21 38.381373 -112.997153 21 25054ft 367kts
05-Oct-20 10:22 38.475421 -112.945379 19 25049ft 369kts
05-Oct-20 10:23 38.567526 -112.897772 18 25045ft 348kts
05-Oct-20 10:24 38.655305 -112.851785 19 25046ft 335kts
05-Oct-20 10:25 38.739181 -112.806180 19 25048ft 323kts
05-Oct-20 10:26 38.822897 -112.760776 19 23911ft 330kts
05-Oct-20 10:27 38.908462 -112.714972 19 22445ft 338kts
05-Oct-20 10:28 38.995608 -112.668946 19 20966ft 338kts
05-Oct-20 10:29 39.082334 -112.623668 19 19256ft 335kts
05-Oct-20 10:30 39.166596 -112.579775 21 17839ft 317kts
05-Oct-20 10:31 39.244079 -112.535553 21 17081ft 295kts
05-Oct-20 10:32 39.321878 -112.495861 14 17082ft 311kts
05-Oct-20 10:33 39.407695 -112.466200 11 16774ft 318kts
05-Oct-20 10:35 39.492133 -112.438439 11 16773ft 308kts
05-Oct-20 10:36 39.576077 -112.410845 11 16775ft 315kts
05-Oct-20 10:37 39.659421 -112.383397 11 16692ft 303kts
05-Oct-20 10:38 39.747527 -112.354661 11 16689ft 325kts
05-Oct-20 10:39 39.833923 -112.324326 13 16695ft 332kts
05-Oct-20 10:40 39.918602 -112.294612 13 16681ft 292kts
05-Oct-20 10:41 39.994665 -112.267524 13 16695ft 286kts
05-Oct-20 10:42 40.072521 -112.240461 12 16675ft 286kts
05-Oct-20 10:43 40.150736 -112.214180 11 14897ft 288kts
05-Oct-20 10:44 40.227610 -112.189195 10 13722ft 280kts
05-Oct-20 10:45 40.302359 -112.165048 12 13721ft 282kts
05-Oct-20 10:46 40.377384 -112.138545 12 12946ft 281kts
05-Oct-20 10:47 40.450311 -112.114505 10 12722ft 266kts
05-Oct-20 10:48 40.524434 -112.089899 9 12213ft 275kts
05-Oct-20 10:49 40.593782 -112.077854 358 11547ft 240kts
05-Oct-20 10:50 40.664971 -112.079019 354 10662ft 255kts
05-Oct-20 10:51 40.730477 -112.083530 352 10661ft 223kts
05-Oct-20 10:51 40.777712 -112.087440 352 10290ft 198kts
05-Oct-20 10:52 40.832333 -112.092041 352 8870ft 197kts
05-Oct-20 10:54 40.894044 -112.097861 352 8673ft 207kts
05-Oct-20 10:54 40.938984 -112.102221 352 8667ft 190kts
05-Oct-20 10:55 40.981274 -112.076076 80 8366ft 214kts
05-Oct-20 10:57 40.968898 -111.992061 141 6694ft 195kts
05-Oct-20 10:57 40.934758 -111.965394 179 6621ft 158kts
05-Oct-20 10:58 40.881070 -111.960786 180 5783ft 175kts
05-Oct-20 10:59 40.827471 -111.962281 178 4792ft 191kts
05-Oct-20 11:00 40.781092 -111.962056 179 4224ft 77kts
05-Oct-20 11:01 40.777143 -111.961275 103 4224ft 0kts
05-Oct-20 11:02 40.776927 -111.959878 99 4224ft 0kts

Navigation Log

Ident Type
Flight plan parsing failed, navigation log unavailable